Sunday, December 16, 2018, 3:09 PM GMT
Back to Local

CYZV, Sept-Iles, Que.

Location: , , Canada Lat: 50.217
Local Time: 3:09 PM GMT (15:09 GMT) Lon: -66.267
Time Zone: GMT Elev: 180 ft

Show me the last for .
Show Decoded

2018-12-16 14:00 METAR CYZV 161400Z 19005KT 190V250 30SM FEW050 FEW250 M02/M08 A3017 RMK SC1CI1
                 SC TR CI TR SLP223 =
2018-12-16 13:00 METAR CYZV 161300Z 33006KT 30SM FEW050 FEW250 M04/M08 A3014 RMK SC1CI1 SC TR CI
                 TR SLP213 =
2018-12-16 12:00 METAR CYZV 161200Z 00000KT 30SM FEW040 M07/M10 A3016 RMK SC1 SC TR PRESFR SLP218
                 =
2018-12-16 11:00 METAR CYZV 161100Z VRB02KT 15SM SCT030 M04/M08 A3017 RMK SC3 SLP222 =
2018-12-16 10:00 METAR CYZV 161000Z 29007KT 15SM SCT030 M02/M07 A3015 RMK SC3 SLP216 =
2018-12-16 09:00 METAR CYZV 160900Z 30012KT 15SM BKN030 M01/M07 A3015 RMK SC6 SLP214 =
2018-12-16 08:00 METAR CYZV 160800Z VRB03KT 15SM BKN035 M02/M07 A3015 RMK SC6 SLP215 =
2018-12-16 07:00 METAR CYZV 160700Z 26004KT 15SM SCT035 M07/M10 A3013 RMK SC3 SLP209 =
2018-12-16 06:00 METAR CYZV 160600Z 26005KT 15SM FEW035 M04/M08 A3010 RMK SC2 SLP198 =
2018-12-16 05:00 METAR CYZV 160500Z 00000KT 15SM SCT037 M02/M07 A3008 RMK SC3 SLP193 =
2018-12-16 04:00 METAR CYZV 160400Z 26007KT 15SM SCT040 M01/M07 A3007 RMK SC4 SLP189 =
2018-12-16 03:00 METAR CYZV 160300Z 25004KT 15SM BKN040 M01/M07 A3007 RMK SC5 SLP187 =
2018-12-16 02:00 METAR CYZV 160200Z 27004KT 15SM BKN040 M02/M09 A3005 RMK SC5 SLP181 =
2018-12-16 01:00 METAR CYZV 160100Z 27004KT 15SM FEW040 M03/M09 A3003 RMK SC2 SLP176 =
2018-12-16 00:00 METAR CYZV 160000Z 30008KT 15SM SKC M02/M07 A3003 RMK SLP173 =
2018-12-15 23:00 METAR CYZV 152300Z 30009KT 15SM FEW035 FEW070 M01/M07 A3001 RMK SC1AC1 SLP168 =
2018-12-15 22:00 METAR CYZV 152200Z 29010KT 15SM FEW035 FEW070 M01/M06 A2997 RMK SC1AC1 SLP155 =
2018-12-15 21:00 METAR CYZV 152100Z 28010KT 30SM BKN070 00/M04 A2994 RMK AC6 SLP145 =
2018-12-15 20:00 METAR CYZV 152000Z 29009KT 30SM FEW040 BKN070 BKN120 01/M04 A2991 RMK CU1AC4AC1
                 PRESRR SLP134 =
2018-12-15 19:21 METAR CYZV 151921Z 31004KT 30SM FEW040 SCT070 BKN120 01/M04 A2988 RMK CU2AC2AC2
                 SLP123 =
2018-12-15 19:00 METAR CYZV 151900Z 32006KT 30SM -SN SCT030 BKN040 OVC120 02/M04 A2987 RMK
                 SC3SC4AC1 SLP120 =
2018-12-15 18:40 METAR CYZV 151840Z 30010G17KT 30SM -SN SCT030 BKN060 02/M04 A2986 RMK SC3SC3
                 SLP117 =
2018-12-15 18:00 METAR CYZV 151800Z 27011KT 30SM FEW040 FEW070 SCT120 SCT200 02/M04 A2985 RMK
                 SC1AC2AC1CI1 SC TR SLP114 =
2018-12-15 17:00 METAR CYZV 151700Z 26010KT 30SM FEW035 BKN060 BKN120 02/M04 A2985 RMK CU2SC3AC2
                 SLP113 =
2018-12-15 16:00 METAR CYZV 151600Z 27006KT 30SM SCT060 BKN120 M01/M05 A2985 RMK SC3AC2 SLP113 =

Support USWX by starting your Amazon purchase here.